Time;durP1;ratioP1;P1;durP2;ratioP2;P2;SDS_P1;SDS_P2;PMS_P1;PMS_P2;Temp;Humidity;BMP_temperature;BMP_pressure;BME280_temperature;BME280_humidity;BME280_pressure;Samples;Min_cycle;Max_cycle;Signal;HPM_P1;HPM_P2
2022/12/30 00:01:19;;;;;;;1.20;0.32;;;7.30;24.70;;;;;;7386090;19;20383;-71
2022/12/30 00:03:49;;;;;;;1.50;0.52;;;7.40;24.40;;;;;;7366921;19;20014;-71
2022/12/30 00:06:21;;;;;;;0.65;0.30;;;7.30;25.20;;;;;;7360019;19;20060;-73
2022/12/30 00:08:57;;;;;;;1.10;0.50;;;7.30;25.20;;;;;;7382990;19;20022;-73
2022/12/30 00:11:28;;;;;;;4.15;1.30;;;7.40;25.70;;;;;;7367039;19;20011;-72
2022/12/30 00:33:24;;;;;;;1.83;1.02;;;7.20;28.80;;;;;;7366171;19;20039;-72
2022/12/30 00:35:54;;;;;;;1.60;0.68;;;7.10;29.60;;;;;;7376496;19;20018;-73
2022/12/30 00:38:24;;;;;;;1.55;0.60;;;7.00;30.10;;;;;;7377530;19;20022;-73
2022/12/30 00:43:38;;;;;;;0.85;0.70;;;7.00;32.00;;;;;;7366221;19;20006;-72
2022/12/30 00:46:09;;;;;;;1.10;0.70;;;7.00;32.20;;;;;;7363015;19;20498;-71
2022/12/30 00:56:48;;;;;;;2.72;1.10;;;6.80;33.30;;;;;;7379155;19;20010;-71
2022/12/30 00:59:18;;;;;;;3.13;1.02;;;6.80;33.60;;;;;;7361376;19;20016;-71
2022/12/30 01:01:48;;;;;;;1.40;0.80;;;6.80;34.60;;;;;;7364076;19;20010;-72
2022/12/30 01:04:18;;;;;;;2.28;0.90;;;6.80;35.20;;;;;;7365033;19;20356;-72
2022/12/30 01:06:48;;;;;;;3.03;0.93;;;6.80;35.30;;;;;;7357493;19;20077;-71
2022/12/30 01:09:18;;;;;;;3.28;1.17;;;6.80;35.40;;;;;;7362245;19;20014;-71
2022/12/30 01:12:07;;;;;;;3.67;1.08;;;6.80;36.00;;;;;;7383289;19;20011;-72
2022/12/30 01:14:37;;;;;;;2.13;0.77;;;6.80;36.10;;;;;;7364964;19;20006;-72
2022/12/30 01:17:09;;;;;;;4.68;1.50;;;6.70;36.00;;;;;;7355843;19;20010;-72
2022/12/30 01:19:40;;;;;;;1.15;0.80;;;6.80;36.60;;;;;;7361693;19;20086;-72
2022/12/30 01:22:10;;;;;;;3.78;1.02;;;6.80;36.70;;;;;;7364292;19;20011;-73
2022/12/30 01:24:41;;;;;;;2.15;0.88;;;6.70;37.00;;;;;;7364881;19;20010;-73
2022/12/30 01:27:13;;;;;;;2.47;0.90;;;6.80;37.90;;;;;;7360821;19;20039;-73
2022/12/30 01:29:44;;;;;;;3.13;1.00;;;6.80;38.10;;;;;;7382691;19;20830;-72
2022/12/30 01:32:17;;;;;;;2.85;0.50;;;6.70;38.00;;;;;;7363378;19;20743;-71
2022/12/30 01:34:47;;;;;;;0.73;0.43;;;6.70;39.30;;;;;;7363974;19;20432;-72
2022/12/30 01:37:17;;;;;;;2.08;0.68;;;6.70;39.40;;;;;;7358958;19;20412;-72
2022/12/30 01:39:47;;;;;;;2.17;0.60;;;6.70;39.00;;;;;;7362522;19;20082;-72
2022/12/30 01:42:23;;;;;;;0.80;0.60;;;6.70;38.50;;;;;;7364413;19;20452;-72
2022/12/30 01:45:00;;;;;;;1.33;0.82;;;6.70;38.30;;;;;;7385929;19;20370;-72
2022/12/30 01:47:42;;;;;;;1.67;0.93;;;6.70;38.30;;;;;;7356880;19;20011;-72
2022/12/30 01:50:33;;;;;;;3.33;1.05;;;6.70;38.70;;;;;;7360721;19;20094;-73
2022/12/30 01:53:06;;;;;;;2.13;0.90;;;6.60;38.20;;;;;;7361618;19;20014;-73
2022/12/30 01:55:39;;;;;;;1.45;0.80;;;6.60;38.60;;;;;;7364772;19;20016;-74
2022/12/30 01:58:16;;;;;;;3.03;1.00;;;6.60;38.80;;;;;;7360525;19;20016;-72
2022/12/30 02:00:48;;;;;;;1.63;0.80;;;6.50;39.20;;;;;;7361871;19;20003;-72
2022/12/30 02:03:18;;;;;;;2.15;0.60;;;6.40;39.20;;;;;;7363361;19;20019;-72
2022/12/30 02:05:50;;;;;;;3.08;0.63;;;6.30;39.20;;;;;;7385117;19;20025;-73
2022/12/30 02:08:22;;;;;;;2.65;0.73;;;6.30;40.70;;;;;;7354780;19;20013;-73
2022/12/30 02:10:56;;;;;;;0.98;0.70;;;6.20;41.20;;;;;;7363104;19;20029;-71
2022/12/30 02:13:28;;;;;;;4.45;0.65;;;6.20;41.60;;;;;;7366609;19;20010;-71
2022/12/30 02:16:20;;;;;;;2.65;0.60;;;6.10;42.40;;;;;;7362920;19;20010;-71
2022/12/30 02:19:09;;;;;;;1.50;0.80;;;6.10;43.80;;;;;;7357456;19;20488;-72
2022/12/30 02:21:56;;;;;;;1.10;0.60;;;6.00;44.10;;;;;;7382656;19;20359;-72
2022/12/30 02:24:49;;;;;;;2.17;0.80;;;6.00;44.60;;;;;;7393947;19;20014;-72
2022/12/30 02:28:03;;;;;;;1.52;0.80;;;6.00;45.10;;;;;;7373620;19;20395;-71
2022/12/30 02:30:59;;;;;;;2.00;1.13;;;6.00;45.10;;;;;;7364755;19;20014;-70
2022/12/30 02:33:33;;;;;;;1.05;0.75;;;5.90;45.70;;;;;;7366697;19;20014;-72
2022/12/30 02:36:10;;;;;;;1.90;0.60;;;5.90;46.30;;;;;;7362217;19;20471;-71
2022/12/30 02:38:47;;;;;;;1.25;0.80;;;5.90;46.90;;;;;;7379662;19;20057;-72
2022/12/30 02:47:01;;;;;;;1.15;0.73;;;5.70;46.90;;;;;;7357286;19;20013;-71
2022/12/30 02:49:32;;;;;;;1.58;0.80;;;5.70;47.20;;;;;;7356669;19;20093;-71
2022/12/30 02:52:15;;;;;;;1.33;1.00;;;5.70;47.40;;;;;;7362890;19;20037;-72
2022/12/30 02:54:47;;;;;;;2.92;0.85;;;5.60;47.60;;;;;;7362172;19;20891;-71
2022/12/30 02:57:29;;;;;;;3.50;1.13;;;5.60;48.20;;;;;;7356556;19;20592;-72
2022/12/30 03:06:00;;;;;;;;;;;5.50;49.00;;;;;;7259668;19;2004464;-72
2022/12/30 03:08:35;;;;;;;5.80;1.10;;;5.50;49.00;;;;;;7379683;19;20414;-71
2022/12/30 03:11:13;;;;;;;2.65;1.00;;;5.60;50.80;;;;;;7359935;19;20003;-71
2022/12/30 03:13:51;;;;;;;3.67;0.93;;;5.60;50.10;;;;;;7360859;19;20017;-72
2022/12/30 03:16:27;;;;;;;1.45;1.00;;;5.50;50.10;;;;;;7357052;19;20002;-71
2022/12/30 03:19:02;;;;;;;1.95;0.90;;;5.50;49.80;;;;;;7355698;19;20025;-71
2022/12/30 03:21:34;;;;;;;1.45;0.93;;;5.40;50.10;;;;;;7361332;19;20089;-71
2022/12/30 03:27:06;;;;;;;3.40;1.20;;;5.40;50.60;;;;;;7378431;19;20014;-72
2022/12/30 03:29:40;;;;;;;1.33;0.88;;;5.30;50.50;;;;;;7355120;19;20032;-72
2022/12/30 03:32:11;;;;;;;2.10;1.00;;;5.20;50.50;;;;;;7360825;19;20375;-72
2022/12/30 03:34:45;;;;;;;2.90;1.00;;;5.20;50.50;;;;;;7360324;19;20122;-72
2022/12/30 03:37:19;;;;;;;3.40;1.02;;;5.20;50.70;;;;;;7363515;19;20021;-72
2022/12/30 03:39:57;;;;;;;2.55;1.15;;;5.10;51.20;;;;;;7363895;19;20634;-72
2022/12/30 03:42:27;;;;;;;4.30;1.00;;;5.10;51.30;;;;;;7367797;19;20021;-72
2022/12/30 03:44:57;;;;;;;2.88;1.13;;;5.10;52.20;;;;;;7367590;19;20014;-72
2022/12/30 03:47:27;;;;;;;2.28;0.93;;;5.10;52.50;;;;;;7382077;19;20022;-72
2022/12/30 03:49:59;;;;;;;1.38;1.00;;;5.10;52.30;;;;;;7364440;19;20074;-72
2022/12/30 03:52:29;;;;;;;5.43;1.48;;;5.10;52.60;;;;;;7367752;19;20006;-72
2022/12/30 03:54:59;;;;;;;2.65;1.00;;;5.10;53.20;;;;;;7367015;19;20022;-72
2022/12/30 03:57:29;;;;;;;3.08;1.40;;;5.10;53.00;;;;;;7365600;19;20014;-72
2022/12/30 03:59:59;;;;;;;2.38;1.20;;;5.10;53.40;;;;;;7362433;19;20014;-72
2022/12/30 04:02:29;;;;;;;3.85;1.10;;;5.10;54.00;;;;;;7389575;19;20077;-72
2022/12/30 04:05:01;;;;;;;1.40;0.98;;;5.10;54.10;;;;;;7366969;19;20018;-72
2022/12/30 04:07:31;;;;;;;4.40;1.35;;;5.10;54.20;;;;;;7364528;19;20006;-72
2022/12/30 04:10:01;;;;;;;3.10;1.15;;;5.10;54.40;;;;;;7361804;19;19999;-72
2022/12/30 04:12:31;;;;;;;1.67;1.10;;;5.10;54.40;;;;;;7366976;19;20019;-72
2022/12/30 04:15:01;;;;;;;2.58;1.20;;;5.10;54.20;;;;;;7366396;19;20021;-72
2022/12/30 04:17:31;;;;;;;2.90;1.00;;;5.00;54.30;;;;;;7389528;19;20039;-71
2022/12/30 04:20:03;;;;;;;3.28;1.20;;;5.00;54.30;;;;;;7361528;19;20011;-72
2022/12/30 04:22:33;;;;;;;2.75;1.40;;;5.00;54.40;;;;;;7367015;19;20639;-71
2022/12/30 04:25:04;;;;;;;2.45;1.63;;;5.10;54.60;;;;;;7368209;19;20014;-72
2022/12/30 04:27:33;;;;;;;3.42;1.80;;;5.00;54.40;;;;;;7365586;19;20482;-72
2022/12/30 04:30:03;;;;;;;7.65;1.80;;;5.00;54.60;;;;;;7363280;19;20339;-72
2022/12/30 04:32:33;;;;;;;2.60;1.40;;;5.00;54.70;;;;;;7388280;19;20509;-72
2022/12/30 04:35:06;;;;;;;1.98;1.30;;;5.00;54.90;;;;;;7365482;19;20007;-72
2022/12/30 04:37:36;;;;;;;3.55;1.20;;;5.00;54.80;;;;;;7362149;19;20010;-71
2022/12/30 04:40:07;;;;;;;5.10;1.73;;;4.90;54.60;;;;;;7361959;19;20089;-71
2022/12/30 04:42:37;;;;;;;1.73;1.30;;;4.90;55.20;;;;;;7365820;19;20018;-71
2022/12/30 04:45:08;;;;;;;1.67;1.00;;;4.90;55.00;;;;;;7366520;19;20015;-71
2022/12/30 04:47:38;;;;;;;3.25;1.25;;;4.90;55.10;;;;;;7381517;19;20398;-71
2022/12/30 04:50:11;;;;;;;4.28;1.10;;;4.80;55.00;;;;;;7362389;19;20494;-71
2022/12/30 04:52:41;;;;;;;3.45;1.33;;;4.90;56.30;;;;;;7365615;19;20006;-71
2022/12/30 04:55:11;;;;;;;2.38;1.10;;;4.90;55.80;;;;;;7364992;19;20015;-71
2022/12/30 04:57:41;;;;;;;2.58;1.50;;;4.90;56.10;;;;;;7358089;19;20382;-71
2022/12/30 05:00:13;;;;;;;2.35;1.40;;;5.00;56.00;;;;;;7361387;19;20470;-72
2022/12/30 05:02:43;;;;;;;2.53;1.25;;;4.90;55.70;;;;;;7387499;19;20028;-71
2022/12/30 05:05:16;;;;;;;2.60;1.20;;;4.90;55.80;;;;;;7366069;19;20039;-71
2022/12/30 05:07:46;;;;;;;3.90;1.20;;;4.90;55.50;;;;;;7357524;19;20010;-71
2022/12/30 05:10:16;;;;;;;2.10;1.40;;;4.90;55.70;;;;;;7362821;19;20013;-71
2022/12/30 05:12:45;;;;;;;1.58;1.13;;;4.90;55.80;;;;;;7365528;19;20417;-72
2022/12/30 05:15:15;;;;;;;1.10;1.00;;;4.90;55.60;;;;;;7364959;19;20022;-71
2022/12/30 05:17:45;;;;;;;2.05;1.00;;;4.90;55.60;;;;;;7379735;19;20107;-72
2022/12/30 05:20:18;;;;;;;2.45;1.10;;;4.90;55.50;;;;;;7362011;19;20014;-71
2022/12/30 05:22:47;;;;;;;4.75;1.50;;;4.90;55.40;;;;;;7363462;19;20010;-72
2022/12/30 05:28:00;;;;;;;2.17;1.40;;;4.90;54.50;;;;;;7357863;19;20010;-72
2022/12/30 05:30:30;;;;;;;1.33;1.20;;;4.90;54.20;;;;;;7364440;19;20010;-71
2022/12/30 05:33:00;;;;;;;1.50;1.00;;;4.90;54.20;;;;;;7368480;19;20019;-71
2022/12/30 05:35:33;;;;;;;2.80;1.48;;;4.90;54.20;;;;;;7385545;19;20089;-71
2022/12/30 05:38:03;;;;;;;1.73;0.98;;;4.90;53.30;;;;;;7356979;19;20010;-71
2022/12/30 05:40:32;;;;;;;2.40;1.02;;;4.80;53.00;;;;;;7375578;19;20078;-70
2022/12/30 05:43:02;;;;;;;4.03;1.17;;;4.80;52.70;;;;;;7388054;19;20113;-71
2022/12/30 05:45:32;;;;;;;3.70;1.02;;;4.70;52.00;;;;;;7382812;19;20011;-68
2022/12/30 05:48:02;;;;;;;1.75;1.10;;;4.70;52.30;;;;;;7360794;19;20466;-70
2022/12/30 05:50:34;;;;;;;2.70;1.42;;;4.60;52.30;;;;;;7385527;19;20015;-70
2022/12/30 05:53:04;;;;;;;1.73;1.00;;;4.70;52.40;;;;;;7365616;19;20011;-70
2022/12/30 05:55:34;;;;;;;4.03;1.27;;;4.70;52.20;;;;;;7363192;19;20344;-70
2022/12/30 05:58:03;;;;;;;1.70;0.80;;;4.70;52.20;;;;;;7354807;19;20034;-70
2022/12/30 06:00:33;;;;;;;1.80;0.85;;;4.70;51.70;;;;;;7359994;19;20442;-71
2022/12/30 06:03:03;;;;;;;2.95;0.80;;;4.70;51.40;;;;;;7364335;19;20015;-71
2022/12/30 06:05:36;;;;;;;1.15;0.80;;;4.70;51.10;;;;;;7385201;19;20021;-72
2022/12/30 06:08:05;;;;;;;2.95;0.90;;;4.70;50.20;;;;;;7356076;19;20014;-70
2022/12/30 06:10:35;;;;;;;2.40;1.00;;;4.70;50.10;;;;;;7360475;19;20023;-71
2022/12/30 06:13:05;;;;;;;0.85;0.57;;;4.70;50.30;;;;;;7362289;19;20517;-71
2022/12/30 06:15:35;;;;;;;1.77;0.93;;;4.70;50.10;;;;;;7364230;19;20014;-71
2022/12/30 06:18:05;;;;;;;1.65;0.77;;;4.60;50.00;;;;;;7355446;19;20014;-71
2022/12/30 06:20:38;;;;;;;1.63;0.93;;;4.60;49.90;;;;;;7381474;19;20014;-71
2022/12/30 06:23:08;;;;;;;1.10;0.75;;;4.60;49.50;;;;;;7362099;19;20011;-71
2022/12/30 06:25:38;;;;;;;2.00;1.33;;;4.60;49.60;;;;;;7362280;19;20159;-71
2022/12/30 06:28:08;;;;;;;1.48;0.95;;;4.60;48.80;;;;;;7355191;19;21051;-71
2022/12/30 06:30:38;;;;;;;1.80;1.10;;;4.50;48.10;;;;;;7361308;19;20014;-71
2022/12/30 06:33:08;;;;;;;4.63;1.20;;;4.40;48.40;;;;;;7362734;19;20018;-71
2022/12/30 06:35:40;;;;;;;2.50;1.10;;;4.40;49.20;;;;;;7383991;19;20018;-71
2022/12/30 06:38:10;;;;;;;4.25;1.38;;;4.40;49.40;;;;;;7354012;19;20021;-71
2022/12/30 06:40:40;;;;;;;2.65;1.20;;;4.40;48.90;;;;;;7359377;19;20010;-71
2022/12/30 06:43:09;;;;;;;2.35;1.23;;;4.30;49.50;;;;;;7362623;19;20362;-70
2022/12/30 06:45:39;;;;;;;4.47;1.30;;;4.40;49.80;;;;;;7362391;19;20034;-71
2022/12/30 06:48:09;;;;;;;1.88;1.40;;;4.40;49.50;;;;;;7352885;19;20010;-71
2022/12/30 06:50:42;;;;;;;2.30;1.27;;;4.30;48.90;;;;;;7380067;19;20015;-71
2022/12/30 06:53:12;;;;;;;2.70;1.20;;;4.20;49.30;;;;;;7362142;19;20011;-71
2022/12/30 06:55:41;;;;;;;2.53;1.30;;;4.20;49.40;;;;;;7361295;19;20499;-71
2022/12/30 06:58:11;;;;;;;4.47;1.60;;;4.20;49.60;;;;;;7353279;19;20049;-71
2022/12/30 07:00:41;;;;;;;3.45;2.08;;;4.10;49.60;;;;;;7360097;19;20050;-71
2022/12/30 07:03:13;;;;;;;2.20;2.00;;;4.10;49.60;;;;;;7361056;19;20027;-72
2022/12/30 07:05:45;;;;;;;2.67;1.55;;;4.20;50.70;;;;;;7383844;19;20039;-72
2022/12/30 07:08:15;;;;;;;1.92;1.73;;;4.10;49.60;;;;;;7352651;19;20007;-71
2022/12/30 07:10:45;;;;;;;3.33;1.77;;;4.00;49.80;;;;;;7362868;19;20006;-71
2022/12/30 07:13:20;;;;;;;2.15;1.77;;;4.10;49.90;;;;;;7368776;19;20031;-71
2022/12/30 07:15:50;;;;;;;3.72;1.98;;;4.10;50.50;;;;;;7369014;19;20014;-71
2022/12/30 07:18:20;;;;;;;2.13;1.65;;;4.00;50.30;;;;;;7359485;19;20038;-70
2022/12/30 07:20:52;;;;;;;3.28;1.70;;;4.20;51.20;;;;;;7388090;19;20019;-71
2022/12/30 07:23:22;;;;;;;5.05;2.13;;;4.10;50.90;;;;;;7368424;19;20022;-70
2022/12/30 07:25:52;;;;;;;4.60;2.33;;;4.10;50.90;;;;;;7367237;19;20530;-71
2022/12/30 07:28:22;;;;;;;3.10;2.17;;;4.10;51.00;;;;;;7359752;19;20085;-72
2022/12/30 07:30:52;;;;;;;3.15;2.10;;;4.10;51.60;;;;;;7367871;19;20642;-72
2022/12/30 07:33:21;;;;;;;3.17;2.30;;;4.10;51.80;;;;;;7367262;19;20018;-71
2022/12/30 07:35:54;;;;;;;3.47;2.25;;;4.20;52.10;;;;;;7389847;19;20031;-72
2022/12/30 07:38:24;;;;;;;2.55;2.10;;;4.20;51.80;;;;;;7359126;19;20007;-72
2022/12/30 07:40:54;;;;;;;3.72;2.50;;;4.20;52.20;;;;;;7364935;19;20510;-71
2022/12/30 07:43:23;;;;;;;4.90;2.22;;;4.30;51.90;;;;;;7367182;19;20489;-71
2022/12/30 07:45:53;;;;;;;3.55;2.42;;;4.30;51.80;;;;;;7367912;19;20006;-71
2022/12/30 07:48:23;;;;;;;4.00;3.17;;;4.30;51.80;;;;;;7358088;19;20010;-71
2022/12/30 07:50:55;;;;;;;5.05;2.75;;;4.30;51.30;;;;;;7388301;19;20501;-72
2022/12/30 07:53:25;;;;;;;4.50;2.80;;;4.40;51.60;;;;;;7368194;19;20010;-71
2022/12/30 07:55:55;;;;;;;5.30;2.88;;;4.50;51.70;;;;;;7366493;19;20465;-70
2022/12/30 07:58:25;;;;;;;4.68;3.10;;;4.50;51.10;;;;;;7359509;19;20007;-70
2022/12/30 08:00:54;;;;;;;3.95;3.10;;;4.50;50.40;;;;;;7365189;19;20485;-72
2022/12/30 08:03:24;;;;;;;3.28;2.55;;;4.60;50.10;;;;;;7365408;19;20513;-72
2022/12/30 08:05:57;;;;;;;4.07;2.83;;;4.70;50.00;;;;;;7378404;19;20029;-72
2022/12/30 08:08:30;;;;;;;4.07;2.78;;;4.70;48.80;;;;;;7381058;19;20044;-71
2022/12/30 08:11:00;;;;;;;6.78;2.28;;;4.80;48.10;;;;;;7365185;19;20016;-71
2022/12/30 08:13:33;;;;;;;3.30;2.60;;;4.80;47.20;;;;;;7366823;19;20006;-71
2022/12/30 08:16:05;;;;;;;5.95;4.13;;;4.90;46.30;;;;;;7364627;19;20013;-71
2022/12/30 08:18:35;;;;;;;3.67;2.92;;;4.90;46.20;;;;;;7359673;19;20363;-71
2022/12/30 08:21:10;;;;;;;3.13;2.55;;;4.90;45.10;;;;;;7364225;19;20010;-71
2022/12/30 08:23:42;;;;;;;3.28;2.97;;;5.00;44.80;;;;;;7387972;19;20015;-73
2022/12/30 08:26:14;;;;;;;5.75;3.10;;;5.00;44.20;;;;;;7363712;19;20469;-72
2022/12/30 08:28:44;;;;;;;3.00;2.40;;;5.10;43.80;;;;;;7358326;19;20010;-72
2022/12/30 08:31:16;;;;;;;3.95;2.45;;;5.20;42.40;;;;;;7364867;19;20010;-71
2022/12/30 08:33:47;;;;;;;4.80;3.00;;;5.20;41.60;;;;;;7365634;19;20007;-71
2022/12/30 08:36:22;;;;;;;5.65;2.58;;;5.20;40.90;;;;;;7364098;19;20047;-71
2022/12/30 08:38:54;;;;;;;5.35;2.58;;;5.20;40.80;;;;;;7380389;19;20012;-71
2022/12/30 08:41:26;;;;;;;3.72;2.50;;;5.30;40.00;;;;;;7364491;19;20011;-71
2022/12/30 08:43:58;;;;;;;11.98;7.00;;;5.40;39.00;;;;;;7364929;19;20015;-72
2022/12/30 08:46:29;;;;;;;3.35;2.42;;;5.50;38.50;;;;;;7362262;19;20078;-72
2022/12/30 08:49:00;;;;;;;7.30;2.85;;;5.60;36.90;;;;;;7359681;19;20015;-72
2022/12/30 08:51:33;;;;;;;3.55;2.45;;;5.60;34.90;;;;;;7365972;19;20024;-72
2022/12/30 08:54:03;;;;;;;3.78;2.50;;;5.70;34.30;;;;;;7365579;19;20013;-72
2022/12/30 08:56:35;;;;;;;4.20;2.47;;;5.70;32.80;;;;;;7383463;19;20010;-72
2022/12/30 08:59:05;;;;;;;4.00;2.45;;;5.80;30.30;;;;;;7361158;19;20010;-71
2022/12/30 09:01:44;;;;;;;3.70;2.35;;;5.90;29.30;;;;;;7386568;19;20027;-72
2022/12/30 09:04:14;;;;;;;2.95;2.60;;;6.00;28.60;;;;;;7384373;19;20403;-75
2022/12/30 09:06:47;;;;;;;3.80;2.42;;;6.10;27.20;;;;;;7367868;19;20031;-72
2022/12/30 09:09:17;;;;;;;3.20;2.28;;;6.10;26.20;;;;;;7358242;19;20022;-71
2022/12/30 09:11:47;;;;;;;4.40;2.20;;;6.20;25.80;;;;;;7385535;19;20013;-71
2022/12/30 09:14:18;;;;;;;3.20;2.00;;;6.20;26.00;;;;;;7364278;19;20010;-73
2022/12/30 09:16:48;;;;;;;3.08;2.17;;;6.30;24.60;;;;;;7360557;19;20086;-72
2022/12/30 09:19:19;;;;;;;3.10;1.90;;;6.40;23.90;;;;;;7357085;19;20038;-72
2022/12/30 09:21:53;;;;;;;2.33;1.48;;;6.40;23.60;;;;;;7363676;19;20090;-71
2022/12/30 09:24:23;;;;;;;5.18;1.90;;;6.40;23.20;;;;;;7362284;19;20038;-73
2022/12/30 09:26:53;;;;;;;3.40;1.70;;;6.50;22.70;;;;;;7383869;19;20026;-72
2022/12/30 09:29:29;;;;;;;2.58;1.60;;;6.50;21.70;;;;;;7355858;19;20018;-72
2022/12/30 09:32:18;;;;;;;2.72;1.95;;;6.60;21.80;;;;;;7361811;19;20488;-73
2022/12/30 09:35:07;;;;;;;3.45;1.90;;;6.60;20.80;;;;;;7363553;19;20024;-73
2022/12/30 09:37:39;;;;;;;3.55;1.95;;;6.60;20.60;;;;;;7357547;19;20493;-73
2022/12/30 09:40:15;;;;;;;4.85;2.17;;;6.70;20.40;;;;;;7358861;19;20344;-73
2022/12/30 09:45:41;;;;;;;3.10;2.33;;;6.80;18.70;;;;;;7362984;19;20021;-72
2022/12/30 09:48:17;;;;;;;3.58;2.00;;;6.80;18.90;;;;;;7354734;19;20011;-73
2022/12/30 09:50:52;;;;;;;3.42;2.30;;;6.90;18.20;;;;;;7384867;19;20010;-72
2022/12/30 09:53:36;;;;;;;3.97;1.98;;;7.00;18.30;;;;;;7362886;19;20066;-73
2022/12/30 09:56:12;;;;;;;3.72;2.08;;;6.90;17.70;;;;;;7361720;19;20006;-71
2022/12/30 09:58:45;;;;;;;3.03;2.22;;;7.00;17.10;;;;;;7355267;19;20014;-75
2022/12/30 10:01:26;;;;;;;5.57;2.88;;;7.10;17.00;;;;;;7361708;19;20327;-73
2022/12/30 10:03:58;;;;;;;4.95;2.95;;;7.20;16.00;;;;;;7362067;19;20042;-73
2022/12/30 10:06:34;;;;;;;4.20;1.90;;;7.40;15.20;;;;;;7360775;19;20034;-73
2022/12/30 10:09:27;;;;;;;2.55;1.48;;;7.30;14.20;;;;;;7355627;19;20032;-73
2022/12/30 10:12:14;;;;;;;2.63;1.65;;;7.30;14.10;;;;;;7361203;19;20207;-73
2022/12/30 10:14:54;;;;;;;4.47;2.80;;;7.30;14.00;;;;;;7383980;19;20014;-72
2022/12/30 10:17:40;;;;;;;3.53;1.92;;;7.40;14.10;;;;;;7359065;19;20350;-73
2022/12/30 10:20:22;;;;;;;2.60;1.80;;;7.50;13.30;;;;;;7358096;19;20013;-71
2022/12/30 10:22:58;;;;;;;4.20;1.75;;;7.50;11.40;;;;;;7360136;19;20038;-73
2022/12/30 10:25:40;;;;;;;2.65;2.00;;;7.40;10.50;;;;;;7361137;19;20015;-71
2022/12/30 10:28:13;;;;;;;3.25;1.80;;;7.50;10.40;;;;;;7352193;19;20375;-73
2022/12/30 10:30:49;;;;;;;3.90;1.63;;;7.50;10.30;;;;;;7361619;19;20020;-71
2022/12/30 10:33:22;;;;;;;3.20;1.77;;;7.60;9.80;;;;;;7361559;19;20019;-72
2022/12/30 10:35:56;;;;;;;4.95;1.85;;;7.70;8.20;;;;;;7381971;19;20014;-71
2022/12/30 10:38:31;;;;;;;4.45;2.20;;;7.80;8.10;;;;;;7353837;19;20463;-73
2022/12/30 10:41:07;;;;;;;;;;;7.80;8.50;;;;;;7360303;19;20006;-73
2022/12/30 10:43:50;;;;;;;5.53;2.42;;;7.90;8.60;;;;;;7360880;19;19927;-73
2022/12/30 10:46:37;;;;;;;4.70;2.53;;;7.90;8.80;;;;;;7359039;19;20021;-72
2022/12/30 10:49:25;;;;;;;8.70;2.90;;;8.00;7.60;;;;;;7354228;19;20010;-73
2022/12/30 10:51:56;;;;;;;5.20;2.10;;;8.00;8.50;;;;;;7360251;19;20010;-73
2022/12/30 10:54:26;;;;;;;5.93;2.40;;;7.90;8.70;;;;;;7361154;19;20453;-72
2022/12/30 10:56:58;;;;;;;3.65;2.50;;;8.00;8.60;;;;;;7359463;19;20696;-73
2022/12/30 10:59:30;;;;;;;2.70;1.90;;;8.00;7.90;;;;;;7374854;19;20018;-73
2022/12/30 11:02:11;;;;;;;2.70;1.83;;;8.10;8.00;;;;;;7359657;19;20007;-73
2022/12/30 11:04:43;;;;;;;6.28;1.92;;;8.20;7.40;;;;;;7360843;19;20018;-72
2022/12/30 11:07:15;;;;;;;5.43;2.08;;;8.20;7.30;;;;;;7357323;19;20006;-73
2022/12/30 11:09:45;;;;;;;6.50;3.38;;;8.30;7.50;;;;;;7353418;19;20813;-73
2022/12/30 11:15:18;;;;;;;3.88;2.08;;;8.50;6.10;;;;;;7361137;19;20033;-72
2022/12/30 11:17:50;;;;;;;3.75;1.83;;;8.40;6.50;;;;;;7375363;19;20021;-72
2022/12/30 11:20:31;;;;;;;3.78;2.50;;;8.50;5.50;;;;;;7357353;19;20011;-74
2022/12/30 11:23:04;;;;;;;2.10;1.60;;;8.60;5.60;;;;;;7359083;19;20011;-73
2022/12/30 11:25:37;;;;;;;3.25;1.58;;;8.70;3.90;;;;;;7359296;19;20011;-72
2022/12/30 11:28:17;;;;;;;8.25;1.80;;;8.80;4.00;;;;;;7352035;19;20366;-71
2022/12/30 11:30:59;;;;;;;3.22;1.60;;;8.80;2.70;;;;;;7358084;19;20010;-72
2022/12/30 11:33:32;;;;;;;1.85;1.20;;;8.90;2.20;;;;;;7359834;19;20009;-72
2022/12/30 11:36:23;;;;;;;2.67;1.17;;;9.00;1.90;;;;;;7359066;19;20585;-73
2022/12/30 11:38:54;;;;;;;1.85;1.10;;;8.90;1.00;;;;;;7372233;19;20118;-73
2022/12/30 11:41:29;;;;;;;2.97;1.00;;;9.00;1.00;;;;;;7357004;19;20025;-72
2022/12/30 11:44:27;;;;;;;2.53;0.95;;;9.10;1.00;;;;;;7357766;19;20098;-73
2022/12/30 11:47:00;;;;;;;3.10;1.00;;;9.10;1.00;;;;;;7355721;19;20015;-73
2022/12/30 11:49:34;;;;;;;5.50;1.30;;;9.10;1.00;;;;;;7352192;19;20086;-72
2022/12/30 11:52:18;;;;;;;1.95;1.10;;;9.20;1.00;;;;;;7359180;19;20023;-75
2022/12/30 11:54:52;;;;;;;3.17;0.80;;;9.20;1.00;;;;;;7359177;19;20482;-73
2022/12/30 11:57:26;;;;;;;4.38;1.13;;;9.20;1.00;;;;;;7361462;19;20014;-73
2022/12/30 12:00:02;;;;;;;3.65;1.05;;;9.20;1.00;;;;;;7359092;19;20014;-74
2022/12/30 12:02:35;;;;;;;2.20;1.15;;;9.30;1.00;;;;;;7388667;19;20038;-72
2022/12/30 12:05:26;;;;;;;2.25;1.17;;;9.20;1.00;;;;;;7366587;19;20007;-73
2022/12/30 12:07:59;;;;;;;4.65;1.35;;;9.20;1.00;;;;;;7357687;19;20010;-72
2022/12/30 12:10:35;;;;;;;2.47;1.13;;;9.30;1.00;;;;;;7363966;19;20117;-73
2022/12/30 12:13:22;;;;;;;33.35;18.45;;;9.30;1.00;;;;;;7365878;19;20107;-73
2022/12/30 12:15:57;;;;;;;3.28;1.20;;;9.30;1.00;;;;;;7365952;19;20512;-73
2022/12/30 12:18:30;;;;;;;2.92;1.45;;;9.40;1.00;;;;;;7358413;19;20016;-72
2022/12/30 12:21:10;;;;;;;2.05;1.13;;;9.40;1.00;;;;;;7365141;19;20029;-72
2022/12/30 12:23:54;;;;;;;2.30;1.10;;;9.30;1.00;;;;;;7386563;19;20007;-71
2022/12/30 12:26:26;;;;;;;4.32;1.17;;;9.40;1.00;;;;;;7363783;19;20014;-72
2022/12/30 12:28:58;;;;;;;2.83;1.75;;;9.40;1.00;;;;;;7362755;19;20015;-72
2022/12/30 12:31:59;;;;;;;2.10;1.10;;;9.40;1.00;;;;;;7364538;19;20018;-73
2022/12/30 12:35:02;;;;;;;2.50;1.35;;;9.40;1.00;;;;;;7365287;19;20049;-73
2022/12/30 12:37:44;;;;;;;3.17;1.10;;;9.30;1.00;;;;;;7359544;19;20018;-73
2022/12/30 12:40:35;;;;;;;4.60;1.30;;;9.40;1.00;;;;;;7360230;19;20016;-73
2022/12/30 12:43:12;;;;;;;2.30;1.20;;;9.40;1.00;;;;;;7361889;19;20147;-72
2022/12/30 12:45:58;;;;;;;4.05;1.67;;;9.40;1.00;;;;;;7365102;19;20010;-73
2022/12/30 12:48:56;;;;;;;2.95;1.42;;;9.40;1.00;;;;;;7359662;19;20009;-68
2022/12/30 12:51:43;;;;;;;1.98;1.10;;;9.40;1.00;;;;;;7363735;19;20019;-73
2022/12/30 12:54:39;;;;;;;1.33;0.98;;;9.40;1.00;;;;;;7362859;19;20023;-72
2022/12/30 12:57:26;;;;;;;3.22;1.20;;;9.40;1.00;;;;;;7358860;19;20033;-72
2022/12/30 13:00:08;;;;;;;2.00;1.10;;;9.40;1.00;;;;;;7358500;19;20018;-73
2022/12/30 13:03:08;;;;;;;3.80;1.13;;;9.40;1.00;;;;;;7383059;19;20018;-72
2022/12/30 13:05:49;;;;;;;4.22;1.55;;;9.40;1.00;;;;;;7361585;19;20014;-72
2022/12/30 13:08:28;;;;;;;1.58;1.10;;;9.30;1.00;;;;;;7355738;19;20021;-72
2022/12/30 13:11:03;;;;;;;1.92;0.98;;;9.30;1.00;;;;;;7360590;19;20014;-72
2022/12/30 13:14:01;;;;;;;2.30;1.20;;;9.30;1.00;;;;;;7360606;19;20099;-72
2022/12/30 13:16:36;;;;;;;5.43;1.30;;;9.30;1.00;;;;;;7360808;19;20047;-73
2022/12/30 13:19:07;;;;;;;2.47;1.33;;;9.20;1.00;;;;;;7357561;19;20018;-73
2022/12/30 13:21:40;;;;;;;2.60;1.30;;;9.30;1.00;;;;;;7359150;19;20021;-73
2022/12/30 13:24:16;;;;;;;2.75;1.83;;;9.30;1.00;;;;;;7360654;19;20002;-73
2022/12/30 13:26:46;;;;;;;5.85;1.58;;;9.30;1.00;;;;;;7382268;19;20006;-73
2022/12/30 13:29:17;;;;;;;3.47;1.38;;;9.30;1.00;;;;;;7359771;19;20461;-73
2022/12/30 13:31:56;;;;;;;3.45;1.95;;;9.30;1.00;;;;;;7363062;19;20570;-73
2022/12/30 13:34:37;;;;;;;3.63;1.85;;;9.40;1.00;;;;;;7363399;19;20011;-73
2022/12/30 13:37:18;;;;;;;5.88;3.22;;;9.30;1.00;;;;;;7357956;19;20010;-73
2022/12/30 13:39:52;;;;;;;6.38;1.42;;;9.50;1.00;;;;;;7360649;19;20010;-74
2022/12/30 13:43:01;;;;;;;3.00;1.55;;;9.40;1.00;;;;;;7362489;19;20550;-75
2022/12/30 13:45:34;;;;;;;4.90;1.50;;;9.40;1.00;;;;;;7361442;19;20006;-74
2022/12/30 13:48:13;;;;;;;6.80;1.95;;;9.30;1.00;;;;;;7357518;19;20328;-74
2022/12/30 13:50:46;;;;;;;2.92;1.45;;;9.30;1.00;;;;;;7383310;19;20478;-72
2022/12/30 13:53:37;;;;;;;3.92;2.17;;;9.40;1.00;;;;;;7362092;19;20091;-73
2022/12/30 13:56:09;;;;;;;3.83;1.90;;;9.40;1.00;;;;;;7360985;19;20011;-72
2022/12/30 13:58:46;;;;;;;4.32;2.13;;;9.40;1.00;;;;;;7355123;19;20490;-73
2022/12/30 14:01:27;;;;;;;6.13;1.83;;;9.40;1.00;;;;;;7362529;19;20374;-72
2022/12/30 14:04:23;;;;;;;3.10;1.77;;;9.30;1.00;;;;;;7361445;19;20010;-74
2022/12/30 14:06:54;;;;;;;1.88;1.10;;;9.30;1.00;;;;;;7358009;19;20457;-72
2022/12/30 14:09:27;;;;;;;2.78;1.10;;;9.30;1.00;;;;;;7359813;19;20029;-74
2022/12/30 14:12:28;;;;;;;2.73;1.10;;;9.30;1.00;;;;;;7363561;19;20056;-74
2022/12/30 14:15:02;;;;;;;2.63;1.60;;;9.30;1.00;;;;;;7361787;19;20621;-74
2022/12/30 14:17:36;;;;;;;3.17;1.63;;;9.20;1.00;;;;;;7383972;19;20502;-73
2022/12/30 14:20:21;;;;;;;5.53;2.17;;;9.30;1.00;;;;;;7360974;19;20011;-74
2022/12/30 14:23:00;;;;;;;6.53;4.22;;;9.30;1.00;;;;;;7360936;19;20010;-74
2022/12/30 14:25:35;;;;;;;5.07;2.35;;;9.30;1.00;;;;;;7361277;19;20094;-74
2022/12/30 14:28:14;;;;;;;3.42;1.30;;;9.40;1.00;;;;;;7361204;19;20014;-73
2022/12/30 14:30:47;;;;;;;9.63;1.30;;;9.30;1.00;;;;;;7362064;19;20110;-73
2022/12/30 14:33:36;;;;;;;3.35;1.35;;;9.30;1.00;;;;;;7361442;19;20014;-73